Time;durP1;ratioP1;P1;durP2;ratioP2;P2;SDS_P1;SDS_P2;PMS_P1;PMS_P2;Temp;Humidity;BMP_temperature;BMP_pressure;BME280_temperature;BME280_humidity;BME280_pressure;Samples;Min_cycle;Max_cycle;Signal;HPM_P1;HPM_P2
2024/01/12 00:02:11;;;;;;;20.98;9.93;;;;;;;-4.02;100.00;99464.16;10252058;28;20134;-75
2024/01/12 00:07:12;;;;;;;19.70;10.40;;;;;;;-3.64;100.00;99506.78;10251073;28;20458;-76
2024/01/12 00:12:13;;;;;;;20.90;10.60;;;;;;;-3.49;100.00;99509.22;10251646;28;20043;-76
2024/01/12 00:17:14;;;;;;;18.92;8.57;;;;;;;-3.35;100.00;99510.06;10251420;28;20135;-76
2024/01/12 00:22:14;;;;;;;22.40;11.23;;;;;;;-3.23;100.00;99491.94;10251489;28;20086;-76
2024/01/12 00:27:16;;;;;;;21.23;11.05;;;;;;;-3.04;100.00;99501.09;10251186;28;20074;-76
2024/01/12 00:32:16;;;;;;;21.92;10.93;;;;;;;-3.21;100.00;99455.44;10251609;28;20051;-76
2024/01/12 00:37:17;;;;;;;20.08;10.32;;;;;;;-3.00;100.00;99468.75;10251478;28;20039;-76
2024/01/12 00:42:18;;;;;;;22.20;11.23;;;;;;;-2.72;100.00;99490.28;10250771;28;20122;-76
2024/01/12 00:47:18;;;;;;;25.02;9.82;;;;;;;-2.63;100.00;99492.25;10250710;28;20043;-76
2024/01/12 00:52:19;;;;;;;18.10;9.57;;;;;;;-2.70;100.00;99465.03;10250081;28;20039;-76
2024/01/12 00:57:20;;;;;;;21.20;10.80;;;;;;;-2.52;100.00;99469.78;10257585;28;20101;-76
2024/01/12 01:02:21;;;;;;;19.52;11.15;;;;;;;-2.45;100.00;99464.16;10257804;28;20117;-76
2024/01/12 01:07:22;;;;;;;26.50;10.68;;;;;;;-2.79;100.00;99409.28;10257851;28;20050;-76
2024/01/12 01:12:23;;;;;;;21.00;10.50;;;;;;;-2.92;100.00;99396.31;10256902;29;20046;-76
2024/01/12 01:17:25;;;;;;;23.35;10.68;;;;;;;-3.69;100.00;99295.06;10256758;28;20043;-76
2024/01/12 01:22:28;;;;;;;22.30;11.88;;;;;;;-2.96;100.00;99438.19;10257328;28;20039;-76
2024/01/12 01:27:29;;;;;;;24.77;11.13;;;;;;;-3.14;100.00;99438.53;10257583;28;20046;-76
2024/01/12 01:32:30;;;;;;;20.40;10.38;;;;;;;-3.22;100.00;99443.41;10257249;28;20043;-76
2024/01/12 01:37:31;;;;;;;19.77;10.43;;;;;;;-3.56;100.00;99404.09;10256081;28;20039;-75
2024/01/12 01:42:32;;;;;;;20.92;9.95;;;;;;;-3.62;100.00;99429.63;10250581;28;20086;-77
2024/01/12 01:47:32;;;;;;;21.95;10.35;;;;;;;-3.86;100.00;99430.28;10254818;29;20047;-76
2024/01/12 01:52:33;;;;;;;22.13;10.07;;;;;;;-4.33;100.00;99361.56;10255971;28;20070;-76
2024/01/12 01:57:35;;;;;;;22.50;10.90;;;;;;;-4.08;100.00;99404.88;10255777;28;20039;-76
2024/01/12 02:02:37;;;;;;;27.33;10.82;;;;;;;-4.29;100.00;99398.47;10254247;28;20047;-76
2024/01/12 02:07:37;;;;;;;24.02;10.30;;;;;;;-4.32;100.00;99383.13;10255369;28;20051;-76
2024/01/12 02:12:39;;;;;;;22.05;9.55;;;;;;;-4.46;100.00;99361.47;10255563;28;20550;-77
2024/01/12 02:17:40;;;;;;;32.33;11.35;;;;;;;-4.60;100.00;99323.50;10253742;28;20116;-75
2024/01/12 02:22:40;;;;;;;20.38;9.90;;;;;;;-4.14;100.00;99362.00;10254331;28;20578;-76
2024/01/12 02:27:41;;;;;;;23.83;10.63;;;;;;;-4.19;100.00;99361.50;10254070;29;20130;-76
2024/01/12 02:32:42;;;;;;;22.60;10.90;;;;;;;-4.41;100.00;99363.78;10252035;28;20046;-75
2024/01/12 02:37:43;;;;;;;23.00;9.90;;;;;;;-4.48;100.00;99354.75;10245350;28;20051;-75
2024/01/12 02:42:43;;;;;;;28.23;9.75;;;;;;;-4.64;100.00;99344.50;10250870;29;20415;-76
2024/01/12 02:47:44;;;;;;;43.67;11.52;;;;;;;-4.72;100.00;99345.00;10253186;29;20043;-75
2024/01/12 02:52:45;;;;;;;27.45;9.85;;;;;;;-4.91;100.00;99319.38;10253222;28;20046;-75
2024/01/12 02:57:46;;;;;;;23.33;10.75;;;;;;;-4.91;100.00;99328.91;10254480;29;20057;-76
2024/01/12 03:02:47;;;;;;;19.50;10.23;;;;;;;-5.02;100.00;99336.53;10252537;28;20054;-76
2024/01/12 03:07:47;;;;;;;23.30;10.65;;;;;;;-5.08;100.00;99328.22;10253220;28;20047;-76
2024/01/12 03:12:48;;;;;;;25.25;11.70;;;;;;;-5.54;100.00;99242.97;10239950;28;20539;-75
2024/01/12 03:17:49;;;;;;;21.77;11.02;;;;;;;-5.52;100.00;99246.31;10250845;28;20051;-73
2024/01/12 03:22:51;;;;;;;20.27;10.23;;;;;;;-4.92;100.00;99342.78;10250683;28;20139;-71
2024/01/12 03:27:51;;;;;;;22.50;10.52;;;;;;;-4.91;100.00;99334.09;10252662;28;20047;-72
2024/01/12 03:32:52;;;;;;;20.27;10.10;;;;;;;-5.29;100.00;99286.34;10251588;28;20126;-73
2024/01/12 03:37:53;;;;;;;22.42;11.10;;;;;;;-4.94;100.00;99345.47;10252241;28;20503;-73
2024/01/12 03:42:54;;;;;;;21.42;9.77;;;;;;;-5.17;100.00;99308.06;10252990;28;20059;-73
2024/01/12 03:47:55;;;;;;;21.05;10.55;;;;;;;-5.09;100.00;99349.00;10251166;28;20050;-72
2024/01/12 03:52:55;;;;;;;22.35;12.10;;;;;;;-5.53;100.00;99255.00;10251038;28;20074;-74
2024/01/12 03:57:56;;;;;;;24.05;10.35;;;;;;;-4.89;100.00;99358.16;10251584;28;20074;-71
2024/01/12 04:02:57;;;;;;;20.55;10.77;;;;;;;-5.22;100.00;99346.34;10251482;28;20047;-75
2024/01/12 04:07:58;;;;;;;33.00;11.23;;;;;;;-5.17;100.00;99354.66;10251560;28;20413;-76
2024/01/12 04:12:58;;;;;;;26.88;10.98;;;;;;;-5.24;100.00;99361.13;10250794;28;20069;-74
2024/01/12 04:17:59;;;;;;;29.50;10.75;;;;;;;-5.53;100.00;99311.94;10251632;28;20051;-75
2024/01/12 04:23:00;;;;;;;33.40;11.20;;;;;;;-5.11;100.00;99367.25;10251966;28;20040;-75
2024/01/12 04:28:00;;;;;;;30.40;11.18;;;;;;;-5.18;100.00;99357.31;10251073;28;20102;-74
2024/01/12 04:33:01;;;;;;;38.60;10.80;;;;;;;-5.37;100.00;99321.38;10255484;28;20047;-76
2024/01/12 04:38:02;;;;;;;33.38;10.60;;;;;;;-5.45;100.00;99329.59;10256749;28;20043;-75
2024/01/12 04:43:03;;;;;;;30.17;11.00;;;;;;;-5.33;100.00;99353.91;10250244;28;20500;-76
2024/01/12 04:48:04;;;;;;;56.83;24.50;;;;;;;-5.17;100.00;99369.38;10256983;28;20574;-79
2024/01/12 04:53:05;;;;;;;47.33;21.50;;;;;;;-5.30;100.00;99344.19;10258843;28;20040;-76
2024/01/12 04:58:06;;;;;;;43.20;21.83;;;;;;;-5.18;100.00;99365.09;10257771;28;20038;-76
2024/01/12 05:03:06;;;;;;;32.13;14.60;;;;;;;-5.06;100.00;99356.59;10257452;28;20042;-76
2024/01/12 05:08:07;;;;;;;26.48;12.85;;;;;;;-4.90;100.00;99359.91;10257781;28;20043;-76
2024/01/12 05:13:08;;;;;;;23.00;10.63;;;;;;;-4.75;100.00;99347.78;10257047;28;20118;-76
2024/01/12 05:18:09;;;;;;;38.90;10.98;;;;;;;-4.31;100.00;99358.84;10256918;28;20063;-76
2024/01/12 05:23:09;;;;;;;22.58;10.70;;;;;;;-3.88;100.00;99356.09;10257150;28;20118;-76
2024/01/12 05:28:10;;;;;;;19.30;10.25;;;;;;;-3.46;100.00;99357.59;10257085;28;20051;-76
2024/01/12 05:33:11;;;;;;;22.20;10.48;;;;;;;-3.53;100.00;99307.00;10256273;28;20039;-76
2024/01/12 05:38:12;;;;;;;22.40;10.23;;;;;;;-3.50;100.00;99309.38;10256136;29;20055;-76
2024/01/12 05:43:13;;;;;;;23.95;10.85;;;;;;;-3.14;100.00;99365.78;10254993;28;20059;-76
2024/01/12 05:48:13;;;;;;;22.88;10.95;;;;;;;-3.26;99.96;99336.31;10256026;28;20043;-76
2024/01/12 05:53:14;;;;;;;19.52;10.00;;;;;;;-3.37;100.00;99335.38;10255600;28;20047;-76
2024/01/12 05:58:15;;;;;;;21.17;9.82;;;;;;;-3.24;100.00;99368.16;10256067;28;20043;-76
2024/01/12 06:03:15;;;;;;;23.50;11.05;;;;;;;-3.49;100.00;99292.88;10255826;28;20047;-76
2024/01/12 06:08:16;;;;;;;25.35;10.73;;;;;;;-3.37;100.00;99297.25;10255379;28;20531;-76
2024/01/12 06:13:17;;;;;;;25.40;10.65;;;;;;;-2.94;100.00;99364.41;10255859;28;20043;-76
2024/01/12 06:18:18;;;;;;;18.52;10.25;;;;;;;-2.91;100.00;99327.81;10255269;28;20451;-76
2024/01/12 06:23:18;;;;;;;24.42;11.27;;;;;;;-2.80;100.00;99325.28;10254967;28;20043;-76
2024/01/12 06:28:19;;;;;;;19.63;10.05;;;;;;;-2.71;100.00;99312.59;10254431;28;20050;-76
2024/01/12 06:33:20;;;;;;;23.73;11.25;;;;;;;-2.67;100.00;99301.84;10254629;28;20047;-77
2024/01/12 06:38:20;;;;;;;27.27;10.23;;;;;;;-2.57;100.00;99300.28;10253772;28;20089;-77
2024/01/12 06:43:21;;;;;;;34.35;11.63;;;;;;;-2.29;100.00;99311.28;10254586;28;20493;-77
2024/01/12 06:48:22;;;;;;;26.13;10.85;;;;;;;-2.12;100.00;99310.06;10253673;28;20109;-76
2024/01/12 06:53:23;;;;;;;22.17;11.30;;;;;;;-1.91;100.00;99308.47;10252211;28;20045;-77
2024/01/12 06:58:23;;;;;;;20.88;11.18;;;;;;;-1.73;100.00;99289.81;10253517;28;20035;-77
2024/01/12 07:03:24;;;;;;;23.98;10.20;;;;;;;-1.64;100.00;99287.34;10253001;28;20414;-77
2024/01/12 07:08:25;;;;;;;18.25;10.25;;;;;;;-1.55;100.00;99271.97;10253482;28;20558;-78
2024/01/12 07:13:25;;;;;;;18.58;10.05;;;;;;;-1.67;100.00;99234.66;10253161;28;20049;-77
2024/01/12 07:18:26;;;;;;;18.92;9.65;;;;;;;-1.57;100.00;99226.97;10253096;28;20146;-77
2024/01/12 07:23:30;;;;;;;18.02;9.52;;;;;;;-1.38;100.00;99216.75;10252226;28;20047;-77
2024/01/12 07:28:31;;;;;;;23.88;10.55;;;;;;;-0.93;100.00;99279.25;10252024;29;20070;-77
2024/01/12 07:33:31;;;;;;;16.77;9.75;;;;;;;-0.96;100.00;99264.72;10252225;28;20101;-78
2024/01/12 07:38:32;;;;;;;23.30;9.65;;;;;;;-0.82;100.00;99275.81;10252294;28;20385;-77
2024/01/12 07:43:33;;;;;;;19.88;9.88;;;;;;;-0.88;100.00;99235.41;10252029;28;20089;-76
2024/01/12 07:48:34;;;;;;;21.52;10.50;;;;;;;-0.66;100.00;99244.13;10252120;29;20094;-76
2024/01/12 07:53:35;;;;;;;22.58;9.77;;;;;;;-0.42;100.00;99246.53;10250986;28;20543;-78
2024/01/12 07:58:35;;;;;;;17.88;10.07;;;;;;;-0.36;100.00;99225.16;10251247;28;20039;-77
2024/01/12 08:03:36;;;;;;;19.20;9.55;;;;;;;-0.13;100.00;99231.09;10250525;28;20043;-77
2024/01/12 08:08:37;;;;;;;18.08;9.77;;;;;;;0.06;100.00;99230.38;10251629;29;20062;-77
2024/01/12 08:13:38;;;;;;;18.48;9.70;;;;;;;0.15;100.00;99203.50;10251554;29;20039;-77
2024/01/12 08:18:38;;;;;;;23.02;9.70;;;;;;;0.41;100.00;99196.88;10250845;29;20090;-77
2024/01/12 08:23:39;;;;;;;24.17;9.52;;;;;;;0.21;100.00;99122.84;10250908;29;20094;-78
2024/01/12 08:28:40;;;;;;;15.95;8.95;;;;;;;0.81;100.00;99174.34;10250695;29;20043;-78
2024/01/12 08:33:42;;;;;;;18.13;9.60;;;;;;;0.77;100.00;99147.59;10251339;29;20035;-78
2024/01/12 08:38:42;;;;;;;19.15;10.07;;;;;;;1.06;100.00;99176.41;10251286;29;20480;-78
2024/01/12 08:43:43;;;;;;;18.63;10.13;;;;;;;1.26;100.00;99176.47;10251249;28;20098;-78
2024/01/12 08:48:44;;;;;;;16.35;9.60;;;;;;;1.53;100.00;99167.91;10250900;28;20548;-75
2024/01/12 08:53:45;;;;;;;20.00;10.27;;;;;;;1.72;99.77;99167.88;10250919;28;20126;-76
2024/01/12 08:58:46;;;;;;;21.85;11.07;;;;;;;1.84;99.79;99147.59;10251043;28;20051;-76
2024/01/12 09:03:47;;;;;;;23.05;10.10;;;;;;;2.00;99.72;99155.66;10250595;28;20070;-77
2024/01/12 09:08:47;;;;;;;19.48;9.95;;;;;;;2.16;99.43;99149.84;10250544;28;20054;-77
2024/01/12 09:13:49;;;;;;;17.95;10.40;;;;;;;2.17;99.46;99122.66;10250269;28;20043;-77
2024/01/12 09:18:49;;;;;;;20.02;10.77;;;;;;;1.93;99.88;99062.13;10257492;28;20039;-76
2024/01/12 09:23:50;;;;;;;28.20;10.27;;;;;;;2.44;99.60;99111.38;10256765;28;20431;-78
2024/01/12 09:28:51;;;;;;;20.85;10.60;;;;;;;2.50;99.55;99109.97;10255405;29;20463;-78
2024/01/12 09:33:52;;;;;;;18.67;10.50;;;;;;;2.44;100.00;99081.72;10256812;28;20043;-78
2024/01/12 09:38:54;;;;;;;20.08;10.95;;;;;;;2.60;100.00;99113.34;10256663;28;20122;-79
2024/01/12 09:43:59;;;;;;;21.50;10.63;;;;;;;2.75;100.00;99113.66;10256704;28;20087;-79
2024/01/12 09:48:59;;;;;;;23.20;11.13;;;;;;;2.78;99.81;99102.06;10255796;28;20120;-79
2024/01/12 09:54:00;;;;;;;22.45;10.45;;;;;;;2.69;100.00;99096.75;10255592;28;20594;-78
2024/01/12 09:59:01;;;;;;;23.48;11.07;;;;;;;2.38;99.80;99051.69;10255432;28;20129;-79
2024/01/12 10:04:02;;;;;;;19.98;10.93;;;;;;;2.70;100.00;99098.38;10256376;28;20039;-79
2024/01/12 10:09:04;;;;;;;19.52;10.65;;;;;;;2.76;99.57;99093.53;10254899;28;20051;-79
2024/01/12 10:14:05;;;;;;;20.35;10.75;;;;;;;2.80;99.59;99090.44;10255075;28;20117;-79
2024/01/12 10:19:05;;;;;;;20.65;10.73;;;;;;;2.91;98.57;99099.91;10254135;29;20126;-79
2024/01/12 10:24:06;;;;;;;19.50;10.98;;;;;;;2.60;98.47;99036.50;10254757;28;20050;-78
2024/01/12 10:29:07;;;;;;;20.52;10.48;;;;;;;2.94;98.50;99094.38;10254747;28;20057;-80
2024/01/12 10:34:12;;;;;;;19.90;10.73;;;;;;;2.76;98.55;99052.41;10254573;28;20043;-78
2024/01/12 10:39:18;;;;;;;17.98;11.07;;;;;;;2.81;98.21;99050.13;10254418;28;20098;-78
2024/01/12 10:44:22;;;;;;;18.65;10.10;;;;;;;3.22;98.32;99095.09;10255203;28;20512;-78
2024/01/12 10:49:26;;;;;;;16.60;9.45;;;;;;;3.36;97.94;99096.38;10254395;28;20109;-77
2024/01/12 10:54:34;;;;;;;16.77;10.25;;;;;;;3.41;98.04;99092.31;10253973;28;20047;-78
2024/01/12 10:59:35;;;;;;;17.75;9.95;;;;;;;3.45;97.89;99071.00;10253190;28;20129;-77
2024/01/12 11:04:38;;;;;;;16.55;9.65;;;;;;;3.57;98.01;99033.00;10253482;28;20516;-77
2024/01/12 11:09:40;;;;;;;15.18;9.90;;;;;;;3.89;97.66;99072.59;10252740;28;20447;-77
2024/01/12 11:14:41;;;;;;;20.40;10.07;;;;;;;3.90;97.50;99094.41;10253060;28;20051;-78
2024/01/12 11:19:42;;;;;;;15.73;10.43;;;;;;;3.79;97.72;99074.47;10252423;28;20504;-77
2024/01/12 11:24:43;;;;;;;18.90;9.73;;;;;;;3.69;97.95;99083.47;10252877;28;20047;-76
2024/01/12 11:29:44;;;;;;;15.27;8.95;;;;;;;3.76;97.75;99077.41;10252164;28;20043;-76
2024/01/12 11:34:45;;;;;;;19.85;10.25;;;;;;;3.89;97.84;99079.66;10252357;29;20063;-76
2024/01/12 11:39:55;;;;;;;16.95;8.77;;;;;;;4.03;97.98;99071.16;10251757;28;20047;-76
2024/01/12 11:44:56;;;;;;;12.52;6.85;;;;;;;4.05;97.52;99087.59;10250847;29;20059;-76
2024/01/12 11:49:57;;;;;;;18.42;8.80;;;;;;;3.99;97.92;99088.22;10252041;28;20051;-76
2024/01/12 11:54:58;;;;;;;13.05;7.45;;;;;;;3.90;98.47;99089.16;10251356;29;20049;-77
2024/01/12 11:59:58;;;;;;;13.93;8.07;;;;;;;3.78;97.97;99114.88;10251850;29;20036;-76
2024/01/12 12:04:59;;;;;;;12.70;7.30;;;;;;;3.73;98.94;99106.63;10251291;29;20113;-76
2024/01/12 12:10:00;;;;;;;15.15;8.88;;;;;;;3.70;98.92;99108.75;10250964;29;20043;-76
2024/01/12 12:15:08;;;;;;;19.50;9.40;;;;;;;3.63;98.99;99111.97;10251633;29;20047;-78
2024/01/12 12:20:12;;;;;;;18.05;8.65;;;;;;;3.57;99.38;99114.41;10247915;29;20047;-76
2024/01/12 12:25:15;;;;;;;18.27;8.70;;;;;;;3.51;99.02;99115.84;10244654;29;20495;-74
2024/01/12 12:30:16;;;;;;;18.58;8.25;;;;;;;3.27;99.01;99071.84;10250586;28;20507;-75
2024/01/12 12:35:18;;;;;;;17.50;9.88;;;;;;;3.57;99.81;99122.28;10249731;29;20082;-74
2024/01/12 12:40:20;;;;;;;17.90;9.38;;;;;;;3.56;99.50;99118.84;10251294;28;20543;-74
2024/01/12 12:45:23;;;;;;;14.30;8.85;;;;;;;3.38;99.74;99110.13;10247458;28;20145;-74
2024/01/12 12:50:24;;;;;;;10.88;6.00;;;;;;;3.52;99.95;99135.84;10253762;28;20484;-74
2024/01/12 12:55:25;;;;;;;7.85;4.95;;;;;;;3.49;100.00;99144.03;10258413;29;20051;-74
2024/01/12 13:00:26;;;;;;;9.98;4.97;;;;;;;3.47;100.00;99139.91;10258230;29;20046;-75
2024/01/12 13:05:27;;;;;;;5.82;4.03;;;;;;;3.42;100.00;99149.06;10255188;29;20050;-74
2024/01/12 13:10:28;;;;;;;5.18;3.20;;;;;;;3.41;100.00;99151.84;10257251;28;20097;-74
2024/01/12 13:15:28;;;;;;;4.45;3.00;;;;;;;3.34;100.00;99158.69;10256965;29;20086;-74
2024/01/12 13:20:29;;;;;;;3.58;2.58;;;;;;;3.25;100.00;99151.72;10257934;29;20109;-74
2024/01/12 13:25:30;;;;;;;5.03;2.33;;;;;;;3.17;99.98;99160.31;10257249;29;20043;-74
2024/01/12 13:30:31;;;;;;;4.20;2.53;;;;;;;3.04;100.00;99158.06;10255474;29;20463;-74
2024/01/12 13:35:32;;;;;;;4.10;2.35;;;;;;;3.03;100.00;99161.69;10255307;29;20142;-75
2024/01/12 13:40:35;;;;;;;4.15;2.70;;;;;;;2.91;100.00;99161.06;10236749;28;20047;-77
2024/01/12 13:45:36;;;;;;;9.60;5.70;;;;;;;2.85;99.96;99164.28;10235521;29;20043;-76
2024/01/12 13:50:36;;;;;;;4.90;3.00;;;;;;;2.77;100.00;99173.84;10255400;28;20050;-74
2024/01/12 13:55:37;;;;;;;3.95;2.63;;;;;;;2.65;100.00;99184.53;10249684;29;20050;-78
2024/01/12 14:00:38;;;;;;;3.20;2.10;;;;;;;2.56;100.00;99195.88;10252099;28;20047;-85
2024/01/12 14:05:40;;;;;;;5.40;3.90;;;;;;;2.42;100.00;99189.34;10250747;29;20053;-77
2024/01/12 14:10:42;;;;;;;4.82;3.08;;;;;;;2.25;99.88;99201.38;10253384;29;20054;-80
2024/01/12 14:15:43;;;;;;;3.97;2.95;;;;;;;2.08;99.80;99188.19;10252843;29;20098;-81
2024/01/12 14:20:45;;;;;;;4.60;3.13;;;;;;;1.81;99.98;99168.81;10249214;28;20127;-79
2024/01/12 14:25:46;;;;;;;3.40;2.50;;;;;;;1.88;100.00;99208.34;10253553;28;20070;-74
2024/01/12 14:30:47;;;;;;;3.42;2.50;;;;;;;1.81;100.00;99215.97;10245461;28;20146;-76
2024/01/12 14:35:48;;;;;;;3.50;2.45;;;;;;;1.85;100.00;99232.22;10244005;28;20043;-75
2024/01/12 14:40:49;;;;;;;4.95;2.90;;;;;;;1.80;100.00;99230.84;10248617;28;20420;-74
2024/01/12 14:45:50;;;;;;;3.55;2.78;;;;;;;1.81;100.00;99253.44;10249509;28;20503;-77
2024/01/12 14:50:51;;;;;;;45.78;19.73;;;;;;;1.55;100.00;99213.88;10253381;28;20071;-76
2024/01/12 14:55:52;;;;;;;9.98;6.13;;;;;;;1.83;100.00;99262.00;10253722;28;20051;-76
2024/01/12 15:00:53;;;;;;;6.40;4.72;;;;;;;1.85;100.00;99271.50;10253925;28;20048;-75
2024/01/12 15:05:54;;;;;;;27.63;18.45;;;;;;;1.76;100.00;99292.28;10252444;28;20407;-76
2024/01/12 15:10:55;;;;;;;9.88;7.50;;;;;;;1.64;100.00;99280.31;10252198;28;20054;-76
2024/01/12 15:15:56;;;;;;;8.32;6.35;;;;;;;1.41;100.00;99273.66;10252633;28;20035;-76
2024/01/12 15:20:57;;;;;;;6.05;4.47;;;;;;;1.52;100.00;99290.06;10252657;29;20129;-75
2024/01/12 15:26:03;;;;;;;6.05;4.65;;;;;;;1.43;100.00;99280.41;10250547;29;20131;-76
2024/01/12 15:31:04;;;;;;;4.85;3.58;;;;;;;1.48;100.00;99290.50;10250368;28;20054;-72
2024/01/12 15:36:05;;;;;;;4.78;3.60;;;;;;;1.41;100.00;99291.97;10252209;28;20039;-78
2024/01/12 15:41:06;;;;;;;4.70;3.70;;;;;;;1.39;100.00;99296.53;10251563;28;20052;-75
2024/01/12 15:46:08;;;;;;;6.18;3.90;;;;;;;1.14;100.00;99281.19;10250781;29;20051;-74
2024/01/12 15:51:14;;;;;;;5.47;4.03;;;;;;;0.64;100.00;99204.53;10252134;28;20043;-76
2024/01/12 15:56:19;;;;;;;7.63;5.13;;;;;;;0.99;100.00;99286.91;10251634;29;20515;-75
2024/01/12 16:01:23;;;;;;;7.28;4.15;;;;;;;0.99;100.00;99302.59;10248926;29;20051;-78
2024/01/12 16:06:24;;;;;;;6.10;4.18;;;;;;;0.77;100.00;99277.50;10249498;29;20177;-78
2024/01/12 16:11:24;;;;;;;7.03;4.30;;;;;;;0.84;100.00;99303.00;10249401;28;20101;-74
2024/01/12 16:16:25;;;;;;;6.32;4.53;;;;;;;0.90;100.00;99333.84;10249278;29;20050;-77
2024/01/12 16:21:34;;;;;;;6.32;4.53;;;;;;;0.81;100.00;99324.16;10249126;28;20133;-76
2024/01/12 16:26:38;;;;;;;7.90;4.97;;;;;;;0.66;100.00;99322.88;10226940;28;20132;-78
2024/01/12 16:31:39;;;;;;;6.43;4.53;;;;;;;0.61;100.00;99325.84;10217946;29;20052;-84
2024/01/12 16:36:40;;;;;;;7.15;5.05;;;;;;;0.37;100.00;99310.44;10256232;29;20063;-78
2024/01/12 16:41:40;;;;;;;9.18;5.88;;;;;;;0.38;100.00;99324.34;10256795;29;20110;-77
2024/01/12 16:46:41;;;;;;;8.20;5.40;;;;;;;0.32;100.00;99323.06;10256727;29;20047;-77
2024/01/12 16:51:42;;;;;;;10.90;6.45;;;;;;;0.41;100.00;99350.19;10257238;29;20130;-77
2024/01/12 16:56:43;;;;;;;8.15;5.57;;;;;;;0.02;100.00;99302.91;10258602;29;20492;-78
2024/01/12 17:01:44;;;;;;;11.00;6.72;;;;;;;0.31;100.00;99359.78;10258421;29;20083;-77
2024/01/12 17:06:44;;;;;;;12.07;7.43;;;;;;;0.12;100.00;99343.00;10257664;29;20098;-79
2024/01/12 17:11:45;;;;;;;9.18;6.25;;;;;;;-0.09;100.00;99336.91;10257947;29;20126;-77
2024/01/12 17:16:46;;;;;;;5.53;4.05;;;;;;;-0.37;100.00;99338.31;10256471;29;20047;-78
2024/01/12 17:21:47;;;;;;;6.32;3.92;;;;;;;-0.51;100.00;99388.97;10257933;29;20050;-77
2024/01/12 17:26:48;;;;;;;5.22;3.30;;;;;;;-0.68;100.00;99405.13;10256277;28;20040;-78
2024/01/12 17:31:50;;;;;;;5.75;3.00;;;;;;;-0.79;100.00;99416.38;10256403;29;20043;-77
2024/01/12 17:36:51;;;;;;;5.10;2.72;;;;;;;-0.98;100.00;99427.41;10231404;28;20047;-78
2024/01/12 17:41:52;;;;;;;4.78;2.88;;;;;;;-1.16;100.00;99424.41;10216778;29;20584;-80
2024/01/12 17:46:53;;;;;;;6.13;3.20;;;;;;;-1.16;100.00;99455.69;10226224;29;20047;-78
2024/01/12 17:51:53;;;;;;;4.28;2.47;;;;;;;-1.50;100.00;99449.53;10256255;28;20050;-79
2024/01/12 17:56:54;;;;;;;3.38;1.83;;;;;;;-1.93;100.00;99448.28;10256897;29;20137;-79
2024/01/12 18:01:55;;;;;;;4.82;2.50;;;;;;;-2.10;100.00;99469.47;10254766;29;20523;-80
2024/01/12 18:06:55;;;;;;;4.07;2.03;;;;;;;-2.20;100.00;99489.28;10252807;29;20097;-78
2024/01/12 18:12:01;;;;;;;4.50;2.38;;;;;;;-2.27;100.00;99507.09;10254464;28;20051;-79
2024/01/12 18:17:03;;;;;;;8.75;4.53;;;;;;;-2.95;100.00;99458.91;10251239;28;20055;-78
2024/01/12 18:22:03;;;;;;;15.85;5.88;;;;;;;-3.26;100.00;99468.75;10252428;29;20412;-80
2024/01/12 18:27:04;;;;;;;9.48;4.82;;;;;;;-3.12;100.00;99531.94;10253465;28;20050;-78
2024/01/12 18:32:05;;;;;;;6.78;3.50;;;;;;;-3.48;100.00;99525.63;10252194;29;20134;-78
2024/01/12 18:37:06;;;;;;;5.55;2.53;;;;;;;-3.77;100.00;99535.25;10211539;29;20047;-77
2024/01/12 18:42:07;;;;;;;5.20;2.75;;;;;;;-4.13;100.00;99519.31;10247161;29;20110;-75
2024/01/12 18:47:08;;;;;;;11.70;2.30;;;;;;;-4.09;100.00;99550.25;10243952;28;20142;-78
2024/01/12 18:52:08;;;;;;;5.45;2.35;;;;;;;-3.99;100.00;99579.88;10226612;29;20046;-76
2024/01/12 18:57:09;;;;;;;11.52;4.82;;;;;;;-4.50;100.00;99518.13;10251515;28;20777;-81
2024/01/12 19:02:10;;;;;;;5.30;2.47;;;;;;;-4.24;100.00;99604.72;10253689;28;20051;-82
2024/01/12 19:07:11;;;;;;;6.97;3.15;;;;;;;-4.88;100.00;99549.75;10252270;29;20043;-79
2024/01/12 19:12:11;;;;;;;7.88;3.00;;;;;;;-4.86;100.00;99553.09;10251176;29;20047;-75
2024/01/12 19:17:12;;;;;;;4.25;2.50;;;;;;;-4.75;100.00;99598.28;10243857;29;20043;-77
2024/01/12 19:22:13;;;;;;;5.70;1.73;;;;;;;-4.69;100.00;99634.19;10239436;28;20051;-75
2024/01/12 19:27:14;;;;;;;3.67;2.08;;;;;;;-4.66;100.00;99623.66;10250894;28;20040;-73
2024/01/12 19:32:15;;;;;;;6.18;1.70;;;;;;;-4.79;100.00;99626.09;10251076;28;20102;-75
2024/01/12 19:37:19;;;;;;;4.55;2.20;;;;;;;-4.85;100.00;99644.59;10246536;28;20039;-76
2024/01/12 19:42:19;;;;;;;3.63;1.73;;;;;;;-5.17;100.00;99651.59;10244165;28;20151;-79
2024/01/12 19:47:20;;;;;;;3.88;1.70;;;;;;;-5.22;100.00;99685.50;10252441;28;20139;-74
2024/01/12 19:52:21;;;;;;;3.97;1.67;;;;;;;-5.35;100.00;99677.59;10244739;28;20145;-77
2024/01/12 19:57:22;;;;;;;2.78;1.50;;;;;;;-5.34;100.00;99674.06;10250530;28;20047;-78
2024/01/12 20:02:22;;;;;;;2.97;1.55;;;;;;;-5.34;100.00;99688.75;10251057;28;20612;-78
2024/01/12 20:07:23;;;;;;;3.97;1.80;;;;;;;-5.54;100.00;99698.41;10250469;28;20488;-78
2024/01/12 20:12:29;;;;;;;5.60;2.15;;;;;;;-5.89;100.00;99677.03;10251537;28;20043;-78
2024/01/12 20:17:30;;;;;;;4.93;2.60;;;;;;;-5.85;100.00;99711.31;10251452;28;20069;-78
2024/01/12 20:22:31;;;;;;;10.63;3.47;;;;;;;-5.77;100.00;99712.59;10249438;28;20126;-79
2024/01/12 20:27:32;;;;;;;18.77;6.95;;;;;;;-6.20;100.00;99675.22;10228815;29;20595;-79
2024/01/12 20:32:33;;;;;;;10.38;5.57;;;;;;;-6.06;100.00;99741.75;10245628;28;20066;-78
2024/01/12 20:37:34;;;;;;;8.52;4.18;;;;;;;-6.44;100.00;99729.78;10246307;29;20043;-79
2024/01/12 20:42:35;;;;;;;6.30;2.42;;;;;;;-6.43;100.00;99747.00;10246565;29;20142;-78
2024/01/12 20:47:36;;;;;;;4.78;2.00;;;;;;;-6.46;100.00;99770.41;10250517;29;20047;-78
2024/01/12 20:52:36;;;;;;;8.45;3.25;;;;;;;-6.61;100.00;99786.66;10249607;29;20171;-79
2024/01/12 20:57:37;;;;;;;5.32;2.38;;;;;;;-6.79;100.00;99772.84;10250239;28;20416;-78
2024/01/12 21:02:38;;;;;;;3.95;1.65;;;;;;;-6.69;100.00;99806.84;10248909;29;20043;-78
2024/01/12 21:07:38;;;;;;;6.50;2.22;;;;;;;-6.91;100.00;99843.13;10250140;29;20118;-79
2024/01/12 21:12:39;;;;;;;3.78;1.45;;;;;;;-7.19;97.75;99856.44;10255197;28;20035;-78
2024/01/12 21:17:40;;;;;;;6.55;2.38;;;;;;;-7.47;97.31;99867.97;10257625;29;20039;-78
2024/01/12 21:22:41;;;;;;;6.25;1.50;;;;;;;-7.74;95.23;99853.69;10257461;29;20039;-77
2024/01/12 21:27:42;;;;;;;6.28;2.05;;;;;;;-7.59;95.63;99873.66;10257915;28;20155;-79
2024/01/12 21:32:43;;;;;;;5.05;2.00;;;;;;;-7.83;95.62;99853.16;10257567;28;20063;-78
2024/01/12 21:37:44;;;;;;;7.22;2.63;;;;;;;-7.58;96.09;99896.78;10256393;29;20035;-79
2024/01/12 21:42:45;;;;;;;3.63;1.55;;;;;;;-7.43;96.04;99936.59;10256083;29;20431;-77
2024/01/12 21:47:46;;;;;;;7.25;2.22;;;;;;;-7.77;96.49;99931.16;10256569;29;20043;-78
2024/01/12 21:52:46;;;;;;;6.18;2.20;;;;;;;-7.70;96.45;99960.94;10256015;29;20047;-78
2024/01/12 21:57:47;;;;;;;3.97;1.20;;;;;;;-8.15;96.66;99895.69;10256585;28;20054;-77
2024/01/12 22:02:48;;;;;;;5.70;2.17;;;;;;;-7.90;96.08;99980.63;10255598;29;20047;-78
2024/01/12 22:07:49;;;;;;;4.82;2.05;;;;;;;-7.98;96.56;100003.31;10255748;29;20051;-77
2024/01/12 22:12:51;;;;;;;5.22;1.52;;;;;;;-8.24;96.01;99998.31;10255319;29;20039;-78
2024/01/12 22:17:52;;;;;;;3.60;1.67;;;;;;;-8.19;96.33;100017.84;10255518;29;20049;-78
2024/01/12 22:22:53;;;;;;;3.25;1.40;;;;;;;-8.44;96.68;100007.63;10254806;28;20093;-78
2024/01/12 22:27:54;;;;;;;4.45;1.30;;;;;;;-8.18;96.65;100049.59;10253204;29;20035;-78
2024/01/12 22:32:55;;;;;;;5.85;1.70;;;;;;;-8.26;96.20;100081.63;10255352;28;20492;-78
2024/01/12 22:37:56;;;;;;;3.97;1.40;;;;;;;-8.25;95.99;100092.81;10254535;28;20062;-78
2024/01/12 22:42:57;;;;;;;7.57;1.67;;;;;;;-8.80;96.08;100038.13;10255307;29;20543;-78
2024/01/12 22:47:58;;;;;;;3.00;1.20;;;;;;;-8.76;95.86;100068.03;10254244;29;20051;-78
2024/01/12 22:52:59;;;;;;;6.60;1.42;;;;;;;-8.69;96.56;100107.28;10253642;29;20469;-78
2024/01/12 22:58:00;;;;;;;4.82;1.42;;;;;;;-8.56;96.46;100150.56;10253979;29;20098;-78